Terminal Aerodrome Forecast
Issued by NWS

Home | Current Version | Previous Version | Text Only | Print | Product List | Glossary On
Versions: 1 2 3 4 5 6 7 8 9 10 11 12 13 14 15 16
000
FTUS43 KSGF 261700
TAFJLN
TAF
KJLN 261737Z 2618/2718 19012G20KT P6SM SCT035 BKN200
      TEMPO 2619/2623 BKN025
     FM262300 18010KT P6SM -SHRA OVC020
     FM270200 20010KT 4SM -RADZ BR OVC007
     FM270800 32010KT 4SM -DZ BR SCT007 OVC012
     FM271400 33010KT P6SM OVC025=

USA.gov is the U.S. government's official web portal to all federal, state and local government web resources and services.